createdAt,value
2023-04-30T00:02:01.035Z,64.25
2023-04-30T00:04:28.958Z,64.51
2023-04-30T00:06:56.884Z,64.66
2023-04-30T00:09:24.884Z,65.35
2023-04-30T00:11:52.699Z,64.83
2023-04-30T00:14:22.034Z,63.98
2023-04-30T00:16:49.909Z,64.59
2023-04-30T00:19:17.977Z,64.23
2023-04-30T00:21:46.164Z,64.41
2023-04-30T00:24:14.070Z,64.10
2023-04-30T00:26:42.723Z,64.30
2023-04-30T00:29:10.696Z,64.11
2023-04-30T00:31:40.091Z,64.86
2023-04-30T00:34:08.064Z,64.82
2023-04-30T00:36:36.086Z,64.15
2023-04-30T00:39:04.107Z,65.13
2023-04-30T00:41:33.680Z,64.23
2023-04-30T00:44:03.142Z,64.74
2023-04-30T00:46:31.374Z,65.13
2023-04-30T00:49:04.983Z,64.58
2023-04-30T00:51:33.934Z,64.94
2023-04-30T00:54:03.481Z,64.52
2023-04-30T00:56:33.254Z,64.53
2023-04-30T00:59:01.413Z,64.78
2023-04-30T01:01:30.179Z,65.40
2023-04-30T01:03:58.257Z,65.30
2023-04-30T01:06:28.366Z,65.01
2023-04-30T01:08:57.373Z,65.82
2023-04-30T01:11:34.040Z,65.43
2023-04-30T01:14:09.522Z,64.97
2023-04-30T01:16:42.968Z,64.19
2023-04-30T01:19:27.262Z,64.82
2023-04-30T01:22:00.024Z,65.12
2023-04-30T01:24:50.265Z,65.24
2023-04-30T01:27:32.973Z,64.25
2023-04-30T01:30:04.829Z,64.38
2023-04-30T01:32:32.753Z,65.71
2023-04-30T01:35:02.967Z,65.31
2023-04-30T01:37:41.889Z,64.71
2023-04-30T01:40:25.390Z,64.27
2023-04-30T01:43:01.224Z,64.63
2023-04-30T01:45:44.145Z,64.98
2023-04-30T01:48:23.681Z,64.57
2023-04-30T01:50:54.673Z,64.99
2023-04-30T01:53:30.611Z,64.68
2023-04-30T01:56:03.400Z,64.97
2023-04-30T01:58:33.085Z,64.38
2023-04-30T02:01:02.348Z,65.08
2023-04-30T02:03:30.324Z,65.03
2023-04-30T02:05:59.154Z,65.13
2023-04-30T02:08:27.212Z,65.35
2023-04-30T02:10:55.079Z,64.99
2023-04-30T02:13:22.947Z,64.76
2023-04-30T02:15:50.803Z,65.21
2023-04-30T02:18:20.160Z,64.95
2023-04-30T02:20:48.086Z,64.73
2023-04-30T02:23:17.444Z,65.14
2023-04-30T02:25:45.481Z,64.92
2023-04-30T02:28:13.334Z,64.22
2023-04-30T02:30:41.159Z,64.92
2023-04-30T02:33:12.390Z,65.00
2023-04-30T02:35:42.784Z,64.54
2023-04-30T02:38:10.718Z,65.20
2023-04-30T02:40:39.001Z,65.27
2023-04-30T02:43:06.847Z,65.30
2023-04-30T02:45:34.836Z,65.10
2023-04-30T02:48:02.845Z,65.00
2023-04-30T02:50:30.768Z,65.03
2023-04-30T02:53:00.024Z,64.78
2023-04-30T02:55:28.325Z,65.31
2023-04-30T02:57:56.234Z,65.09
2023-04-30T03:00:24.144Z,65.08
2023-04-30T03:02:52.252Z,64.71
2023-04-30T03:05:20.446Z,65.21
2023-04-30T03:07:48.324Z,65.13
2023-04-30T03:10:19.233Z,65.03
2023-04-30T03:12:47.115Z,65.42
2023-04-30T03:15:15.001Z,65.31
2023-04-30T03:17:45.925Z,64.70
2023-04-30T03:20:14.750Z,64.64
2023-04-30T03:22:42.927Z,65.35
2023-04-30T03:25:11.633Z,65.60
2023-04-30T03:27:40.922Z,65.54
2023-04-30T03:30:09.724Z,65.70
2023-04-30T03:32:38.905Z,65.33
2023-04-30T03:35:07.921Z,65.84
2023-04-30T03:37:35.999Z,65.37
2023-04-30T03:40:04.882Z,65.62
2023-04-30T03:42:33.054Z,65.44
2023-04-30T03:45:02.556Z,65.56
2023-04-30T03:47:30.562Z,65.64
2023-04-30T03:49:58.464Z,64.74
2023-04-30T03:52:26.794Z,65.73
2023-04-30T03:54:54.680Z,65.77
2023-04-30T03:57:25.218Z,65.54
2023-04-30T03:59:53.483Z,65.75
2023-04-30T04:02:23.415Z,65.44
2023-04-30T04:04:52.396Z,65.25
2023-04-30T04:07:24.920Z,65.50
2023-04-30T04:09:53.033Z,66.22
2023-04-30T04:12:21.206Z,65.51
2023-04-30T04:14:51.984Z,65.21
2023-04-30T04:17:20.098Z,65.14
2023-04-30T04:19:49.443Z,65.29
2023-04-30T04:22:17.471Z,64.81
2023-04-30T04:24:45.788Z,65.63
2023-04-30T04:27:13.642Z,65.45
2023-04-30T04:29:41.701Z,65.88
2023-04-30T04:32:10.322Z,65.42
2023-04-30T04:34:38.781Z,65.75
2023-04-30T04:37:08.584Z,65.94
2023-04-30T04:39:37.309Z,64.94
2023-04-30T04:42:05.522Z,65.60
2023-04-30T04:44:33.720Z,66.30
2023-04-30T04:47:03.620Z,65.43
2023-04-30T04:49:31.516Z,65.64
2023-04-30T04:51:59.705Z,65.24
2023-04-30T04:54:29.253Z,64.87
2023-04-30T04:56:57.519Z,64.96
2023-04-30T04:59:25.423Z,65.15
2023-04-30T05:01:53.440Z,64.98
2023-04-30T05:04:21.525Z,64.90
2023-04-30T05:06:49.400Z,64.83
2023-04-30T05:09:17.592Z,65.27
2023-04-30T05:11:49.058Z,64.15
2023-04-30T05:14:16.938Z,65.04
2023-04-30T05:16:44.936Z,64.19
2023-04-30T05:19:13.029Z,63.08
2023-04-30T05:21:40.952Z,63.44
2023-04-30T05:24:09.110Z,63.18
2023-04-30T05:26:37.079Z,62.90
2023-04-30T05:29:06.382Z,62.62
2023-04-30T05:31:34.327Z,62.63
2023-04-30T05:34:02.267Z,61.61
2023-04-30T05:36:30.290Z,61.59
2023-04-30T05:38:58.131Z,60.91
2023-04-30T05:41:26.816Z,61.57
2023-04-30T05:43:54.688Z,60.88
2023-04-30T05:46:23.951Z,60.81
2023-04-30T05:48:51.969Z,60.03
2023-04-30T05:51:19.796Z,59.83
2023-04-30T05:53:47.753Z,59.94
2023-04-30T05:56:15.958Z,59.85
2023-04-30T05:58:44.435Z,59.41
2023-04-30T06:01:12.445Z,58.68
2023-04-30T06:03:45.044Z,57.17
2023-04-30T06:06:12.937Z,57.29
2023-04-30T06:08:42.240Z,57.20
2023-04-30T06:11:10.284Z,56.17
2023-04-30T06:13:46.763Z,55.46
2023-04-30T06:16:14.884Z,56.11
2023-04-30T06:18:44.368Z,55.06
2023-04-30T06:21:12.616Z,54.53
2023-04-30T06:23:41.657Z,54.14
2023-04-30T06:26:09.937Z,53.62
2023-04-30T06:28:37.769Z,53.01
2023-04-30T06:31:05.885Z,52.14
2023-04-30T06:33:33.751Z,51.50
2023-04-30T06:36:03.189Z,51.54
2023-04-30T06:38:38.637Z,50.86
2023-04-30T06:41:06.682Z,50.52
2023-04-30T06:43:34.729Z,50.20
2023-04-30T06:46:02.729Z,49.47
2023-04-30T06:48:30.685Z,48.57
2023-04-30T06:50:58.798Z,49.21
2023-04-30T06:53:28.242Z,45.09
2023-04-30T06:55:56.620Z,38.59
2023-04-30T06:58:24.526Z,37.09
2023-04-30T07:00:52.593Z,35.53
2023-04-30T07:03:20.535Z,37.00
2023-04-30T07:05:48.586Z,34.61
2023-04-30T07:08:16.626Z,33.42
2023-04-30T07:10:45.901Z,31.74
2023-04-30T07:13:13.802Z,31.41
2023-04-30T07:15:42.306Z,32.04
2023-04-30T07:18:10.463Z,31.41
2023-04-30T07:20:38.562Z,31.20
2023-04-30T07:23:06.448Z,27.86
2023-04-30T07:25:34.326Z,28.35
2023-04-30T07:28:03.581Z,25.59
2023-04-30T07:30:31.681Z,25.77
2023-04-30T07:32:59.563Z,26.10
2023-04-30T07:35:27.554Z,24.78
2023-04-30T07:37:55.540Z,24.65
2023-04-30T07:40:34.922Z,24.68
2023-04-30T07:43:05.823Z,24.05
2023-04-30T07:45:34.822Z,22.94
2023-04-30T07:48:03.033Z,22.74
2023-04-30T07:50:34.002Z,23.34
2023-04-30T07:53:02.945Z,25.26
2023-04-30T07:55:31.273Z,27.39
2023-04-30T07:57:59.718Z,29.19
2023-04-30T08:00:29.601Z,30.26
2023-04-30T08:02:57.496Z,29.42
2023-04-30T08:05:25.717Z,28.52
2023-04-30T08:07:53.637Z,27.66
2023-04-30T08:10:21.668Z,27.50
2023-04-30T08:12:50.591Z,28.12
2023-04-30T08:15:19.259Z,26.47
2023-04-30T08:17:50.236Z,25.11
2023-04-30T08:20:18.384Z,23.64
2023-04-30T08:22:46.825Z,23.21
2023-04-30T08:25:15.067Z,22.22
2023-04-30T08:27:42.926Z,22.00
2023-04-30T08:30:11.337Z,21.40
2023-04-30T08:32:39.601Z,21.61
2023-04-30T08:35:10.745Z,20.44
2023-04-30T08:37:38.769Z,20.17
2023-04-30T08:40:09.850Z,20.13
2023-04-30T08:42:40.973Z,20.45
2023-04-30T08:45:12.958Z,19.53
2023-04-30T08:47:41.872Z,19.93
2023-04-30T08:50:11.720Z,19.39
2023-04-30T08:52:41.451Z,20.00
2023-04-30T08:55:11.310Z,20.08
2023-04-30T08:57:39.556Z,19.61
2023-04-30T09:00:09.699Z,18.73
2023-04-30T09:02:42.162Z,18.36
2023-04-30T09:05:14.223Z,18.28
2023-04-30T09:07:48.971Z,19.87
2023-04-30T09:10:24.208Z,20.68
2023-04-30T09:13:01.654Z,19.81
2023-04-30T09:15:30.142Z,19.62
2023-04-30T09:18:13.036Z,19.27
2023-04-30T09:20:56.744Z,18.62
2023-04-30T09:23:25.391Z,18.95
2023-04-30T09:25:53.418Z,19.24
2023-04-30T09:28:24.632Z,19.76
2023-04-30T09:30:53.080Z,19.52
2023-04-30T09:33:21.433Z,20.40
2023-04-30T09:35:50.871Z,20.40
2023-04-30T09:38:29.536Z,20.80
2023-04-30T09:41:00.070Z,22.11
2023-04-30T09:43:28.447Z,22.96
2023-04-30T09:45:58.737Z,24.79
2023-04-30T09:48:28.379Z,25.56
2023-04-30T09:50:57.869Z,26.37
2023-04-30T09:53:25.767Z,28.09
2023-04-30T09:55:54.524Z,27.67
2023-04-30T09:58:25.873Z,27.44
2023-04-30T10:00:57.040Z,28.01
2023-04-30T10:03:25.359Z,27.02
2023-04-30T10:05:54.072Z,27.17
2023-04-30T10:08:28.383Z,27.15
2023-04-30T10:11:01.387Z,27.34
2023-04-30T10:13:32.754Z,27.21
2023-04-30T10:16:05.981Z,27.66
2023-04-30T10:18:36.693Z,28.22
2023-04-30T10:21:10.261Z,27.35
2023-04-30T10:23:42.271Z,27.64
2023-04-30T10:26:12.301Z,28.22
2023-04-30T10:28:40.923Z,27.77
2023-04-30T10:31:11.617Z,27.63
2023-04-30T10:33:50.001Z,27.21
2023-04-30T10:36:27.952Z,27.67
2023-04-30T10:38:58.016Z,29.24
2023-04-30T10:41:28.331Z,29.51
2023-04-30T10:44:01.185Z,29.41
2023-04-30T10:46:30.127Z,30.18
2023-04-30T10:48:58.526Z,30.16
2023-04-30T10:51:46.395Z,29.25
2023-04-30T10:54:18.806Z,29.69
2023-04-30T10:56:48.635Z,30.76
2023-04-30T10:59:16.752Z,30.09
2023-04-30T11:01:58.731Z,30.42
2023-04-30T11:04:27.498Z,30.69
2023-04-30T11:07:14.550Z,31.42
2023-04-30T11:09:46.120Z,31.16
2023-04-30T11:12:16.248Z,30.93
2023-04-30T11:14:46.055Z,31.26
2023-04-30T11:17:22.484Z,31.01
2023-04-30T11:19:52.279Z,30.72
2023-04-30T11:22:23.393Z,31.27
2023-04-30T11:25:05.004Z,31.44
2023-04-30T11:27:34.659Z,31.27
2023-04-30T11:30:04.924Z,31.28
2023-04-30T11:32:37.861Z,31.17
2023-04-30T11:35:07.428Z,31.05
2023-04-30T11:37:37.793Z,31.52
2023-04-30T11:40:11.093Z,32.15
2023-04-30T11:42:41.191Z,31.42
2023-04-30T11:45:12.788Z,32.60
2023-04-30T11:47:42.551Z,32.56
2023-04-30T11:50:11.949Z,32.81
2023-04-30T11:52:40.494Z,31.88
2023-04-30T11:55:15.330Z,31.55
2023-04-30T11:57:44.356Z,31.49
2023-04-30T12:00:14.471Z,31.43
2023-04-30T12:02:43.634Z,31.21
2023-04-30T12:05:17.139Z,31.04
2023-04-30T12:07:49.862Z,31.49
2023-04-30T12:10:20.679Z,31.51
2023-04-30T12:12:51.212Z,31.26
2023-04-30T12:15:23.236Z,31.92
2023-04-30T12:17:51.346Z,31.99
2023-04-30T12:20:19.851Z,32.52
2023-04-30T12:22:48.030Z,32.63
2023-04-30T12:25:19.675Z,32.31
2023-04-30T12:27:49.729Z,31.75
2023-04-30T12:30:21.460Z,31.04
2023-04-30T12:32:51.808Z,30.28
2023-04-30T12:35:21.113Z,29.87
2023-04-30T12:37:51.346Z,30.46
2023-04-30T12:40:21.999Z,30.68
2023-04-30T12:42:50.047Z,31.02
2023-04-30T12:45:45.580Z,30.85
2023-04-30T12:48:14.980Z,31.80
2023-04-30T12:50:43.295Z,31.47
2023-04-30T12:53:11.805Z,31.81
2023-04-30T12:55:42.243Z,31.08
2023-04-30T12:58:11.788Z,31.21
2023-04-30T13:00:47.624Z,31.44
2023-04-30T13:03:16.897Z,32.00
2023-04-30T13:05:48.552Z,31.16
2023-04-30T13:08:16.966Z,32.38
2023-04-30T13:10:52.115Z,31.56
2023-04-30T13:13:21.498Z,31.58
2023-04-30T13:15:49.459Z,31.39
2023-04-30T13:18:17.432Z,30.66
2023-04-30T13:20:48.268Z,31.01
2023-04-30T13:23:16.139Z,31.08
2023-04-30T13:25:44.146Z,30.73
2023-04-30T13:28:13.525Z,30.82
2023-04-30T13:30:42.060Z,30.28
2023-04-30T13:33:10.275Z,30.47
2023-04-30T13:35:38.316Z,30.27
2023-04-30T13:38:07.498Z,29.97
2023-04-30T13:40:35.774Z,30.57
2023-04-30T13:43:05.310Z,30.79
2023-04-30T13:45:36.145Z,31.01
2023-04-30T13:48:05.905Z,30.97
2023-04-30T13:50:33.836Z,30.99
2023-04-30T13:53:01.703Z,30.66
2023-04-30T13:55:29.730Z,30.35
2023-04-30T13:57:58.667Z,30.52
2023-04-30T14:00:26.780Z,29.96
2023-04-30T14:02:56.294Z,30.07
2023-04-30T14:05:24.268Z,30.54
2023-04-30T14:07:52.448Z,30.90
2023-04-30T14:10:20.610Z,30.54
2023-04-30T14:12:48.912Z,30.35
2023-04-30T14:15:17.025Z,29.52
2023-04-30T14:17:45.313Z,30.04
2023-04-30T14:20:15.319Z,30.08
2023-04-30T14:22:43.441Z,31.38
2023-04-30T14:25:12.815Z,32.04
2023-04-30T14:27:41.554Z,32.09
2023-04-30T14:30:10.495Z,32.45
2023-04-30T14:32:38.722Z,31.66
2023-04-30T14:35:07.846Z,31.43
2023-04-30T14:37:37.617Z,30.97
2023-04-30T14:40:12.232Z,30.47
2023-04-30T14:42:40.321Z,31.00
2023-04-30T14:45:11.176Z,31.62
2023-04-30T14:47:39.541Z,31.77
2023-04-30T14:50:08.201Z,31.71
2023-04-30T14:52:37.742Z,31.63
2023-04-30T14:55:06.735Z,31.68
2023-04-30T14:57:35.117Z,31.77
2023-04-30T15:00:07.769Z,31.67
2023-04-30T15:02:36.144Z,31.57
2023-04-30T15:05:05.700Z,31.55
2023-04-30T15:07:33.747Z,31.28
2023-04-30T15:10:03.153Z,31.15
2023-04-30T15:12:31.334Z,31.28
2023-04-30T15:14:59.422Z,31.39
2023-04-30T15:17:27.466Z,31.04
2023-04-30T15:19:56.309Z,31.57
2023-04-30T15:22:25.026Z,31.15
2023-04-30T15:24:54.104Z,31.00
2023-04-30T15:27:24.029Z,31.09
2023-04-30T15:29:53.696Z,31.64
2023-04-30T15:32:22.014Z,32.08
2023-04-30T15:34:49.945Z,30.75
2023-04-30T15:37:22.446Z,30.89
2023-04-30T15:39:53.935Z,31.26
2023-04-30T15:42:23.263Z,31.28
2023-04-30T15:44:52.411Z,31.13
2023-04-30T15:47:22.429Z,30.93
2023-04-30T15:49:54.167Z,31.11
2023-04-30T15:52:22.319Z,31.47
2023-04-30T15:54:52.087Z,31.50
2023-04-30T15:57:20.337Z,32.00
2023-04-30T15:59:49.720Z,31.72
2023-04-30T16:02:17.653Z,31.99
2023-04-30T16:04:45.901Z,31.40
2023-04-30T16:07:13.921Z,31.79
2023-04-30T16:09:46.275Z,32.76
2023-04-30T16:12:14.190Z,32.70
2023-04-30T16:14:42.283Z,32.26
2023-04-30T16:17:11.637Z,32.04
2023-04-30T16:19:39.534Z,32.19
2023-04-30T16:22:09.002Z,32.52
2023-04-30T16:24:36.971Z,32.27
2023-04-30T16:27:04.969Z,32.44
2023-04-30T16:29:32.802Z,32.59
2023-04-30T16:32:00.769Z,32.57
2023-04-30T16:34:30.064Z,32.28
2023-04-30T16:36:57.975Z,32.29
2023-04-30T16:39:26.012Z,32.54
2023-04-30T16:41:54.271Z,32.62
2023-04-30T16:44:22.548Z,32.03
2023-04-30T16:46:51.329Z,32.84
2023-04-30T16:49:19.165Z,33.01
2023-04-30T16:51:48.474Z,33.35
2023-04-30T16:54:16.621Z,33.50
2023-04-30T16:56:44.866Z,33.79
2023-04-30T16:59:12.891Z,33.58
2023-04-30T17:01:40.842Z,33.05
2023-04-30T17:04:08.724Z,33.29
2023-04-30T17:06:36.882Z,33.13
2023-04-30T17:09:06.708Z,33.54
2023-04-30T17:11:35.071Z,33.51
2023-04-30T17:14:03.093Z,33.82
2023-04-30T17:16:31.219Z,33.67
2023-04-30T17:18:59.150Z,34.23
2023-04-30T17:21:29.821Z,33.92
2023-04-30T17:23:58.560Z,33.21
2023-04-30T17:26:27.785Z,33.56
2023-04-30T17:28:55.594Z,33.43
2023-04-30T17:31:24.159Z,33.70
2023-04-30T17:33:52.404Z,34.03
2023-04-30T17:36:20.387Z,33.95
2023-04-30T17:38:48.406Z,33.48
2023-04-30T17:41:18.433Z,33.41
2023-04-30T17:43:47.776Z,34.02
2023-04-30T17:46:15.874Z,33.99
2023-04-30T17:48:43.731Z,33.97
2023-04-30T17:51:11.632Z,34.68
2023-04-30T17:53:39.612Z,34.56
2023-04-30T17:56:08.848Z,35.14
2023-04-30T17:58:38.436Z,35.52
2023-04-30T18:01:09.198Z,35.09
2023-04-30T18:03:37.386Z,35.36
2023-04-30T18:06:05.446Z,35.26
2023-04-30T18:08:34.123Z,35.43
2023-04-30T18:11:03.329Z,35.64
2023-04-30T18:13:31.567Z,35.68
2023-04-30T18:15:59.685Z,35.78
2023-04-30T18:18:29.350Z,36.12
2023-04-30T18:20:57.427Z,35.72
2023-04-30T18:23:26.826Z,36.38
2023-04-30T18:25:54.728Z,35.95
2023-04-30T18:28:24.680Z,36.27
2023-04-30T18:30:53.475Z,37.19
2023-04-30T18:33:21.396Z,37.10
2023-04-30T18:35:52.264Z,37.62
2023-04-30T18:38:20.737Z,37.20
2023-04-30T18:40:48.600Z,37.47
2023-04-30T18:43:16.942Z,37.64
2023-04-30T18:45:45.033Z,37.49
2023-04-30T18:48:15.167Z,38.11
2023-04-30T18:50:43.422Z,38.18
2023-04-30T18:53:13.668Z,38.16
2023-04-30T18:55:42.690Z,38.79
2023-04-30T18:58:10.478Z,39.19
2023-04-30T19:00:38.396Z,39.71
2023-04-30T19:03:06.409Z,39.66
2023-04-30T19:05:35.788Z,38.78
2023-04-30T19:08:04.329Z,39.84
2023-04-30T19:10:35.017Z,39.73
2023-04-30T19:13:02.853Z,39.95
2023-04-30T19:15:30.903Z,39.98
2023-04-30T19:17:58.995Z,40.36
2023-04-30T19:20:27.242Z,40.33
2023-04-30T19:22:55.153Z,41.11
2023-04-30T19:25:23.496Z,40.93
2023-04-30T19:27:53.736Z,40.96
2023-04-30T19:30:21.800Z,41.33
2023-04-30T19:32:49.688Z,42.03
2023-04-30T19:35:17.682Z,42.59
2023-04-30T19:37:45.721Z,43.09
2023-04-30T19:40:14.832Z,43.62
2023-04-30T19:42:42.732Z,43.99
2023-04-30T19:45:13.182Z,44.34
2023-04-30T19:47:41.099Z,44.48
2023-04-30T19:50:10.160Z,44.49
2023-04-30T19:52:38.158Z,44.65
2023-04-30T19:55:06.734Z,45.46
2023-04-30T19:57:35.908Z,45.32
2023-04-30T20:00:06.457Z,45.07
2023-04-30T20:02:36.048Z,44.60
2023-04-30T20:05:06.466Z,44.27
2023-04-30T20:07:35.108Z,45.09
2023-04-30T20:10:03.040Z,45.30
2023-04-30T20:12:30.945Z,45.28
2023-04-30T20:14:58.819Z,45.56
2023-04-30T20:17:26.689Z,45.88
2023-04-30T20:19:56.236Z,46.47
2023-04-30T20:22:25.361Z,46.70
2023-04-30T20:24:56.501Z,47.83
2023-04-30T20:27:25.780Z,47.59
2023-04-30T20:29:54.138Z,47.38
2023-04-30T20:32:22.542Z,47.67
2023-04-30T20:34:51.260Z,47.59
2023-04-30T20:37:20.636Z,47.29
2023-04-30T20:39:48.547Z,48.27
2023-04-30T20:42:16.531Z,48.69
2023-04-30T20:44:44.414Z,48.46
2023-04-30T20:47:14.338Z,48.19
2023-04-30T20:49:43.601Z,47.90
2023-04-30T20:52:12.154Z,48.89
2023-04-30T20:54:45.198Z,49.13
2023-04-30T20:57:19.737Z,48.29
2023-04-30T20:59:47.646Z,49.24
2023-04-30T21:02:15.728Z,48.99
2023-04-30T21:04:44.384Z,49.08
2023-04-30T21:07:12.971Z,49.35
2023-04-30T21:09:42.912Z,49.35
2023-04-30T21:12:11.769Z,49.46
2023-04-30T21:14:54.653Z,48.96
2023-04-30T21:17:23.382Z,49.20
2023-04-30T21:19:51.707Z,49.30
2023-04-30T21:22:20.664Z,49.41
2023-04-30T21:24:50.040Z,49.37
2023-04-30T21:27:18.082Z,50.02
2023-04-30T21:29:46.011Z,50.53
2023-04-30T21:32:14.264Z,50.63
2023-04-30T21:34:44.060Z,50.64
2023-04-30T21:37:12.197Z,50.92
2023-04-30T21:39:40.272Z,50.61
2023-04-30T21:42:09.750Z,50.20
2023-04-30T21:44:37.980Z,50.22
2023-04-30T21:47:08.284Z,50.39
2023-04-30T21:49:36.992Z,50.02
2023-04-30T21:52:08.123Z,49.87
2023-04-30T21:54:36.121Z,50.36
2023-04-30T21:57:04.061Z,50.53
2023-04-30T21:59:35.286Z,50.62
2023-04-30T22:02:16.507Z,51.35
2023-04-30T22:04:51.406Z,51.63
2023-04-30T22:07:19.316Z,51.73
2023-04-30T22:09:47.531Z,51.25
2023-04-30T22:12:19.317Z,51.15
2023-04-30T22:14:50.236Z,50.83
2023-04-30T22:17:18.176Z,50.52
2023-04-30T22:19:46.284Z,50.00
2023-04-30T22:22:14.366Z,49.62
2023-04-30T22:24:42.237Z,50.23
2023-04-30T22:27:12.780Z,50.07
2023-04-30T22:29:41.217Z,49.64
2023-04-30T22:32:11.631Z,49.71
2023-04-30T22:34:42.285Z,49.75
2023-04-30T22:37:11.731Z,50.15
2023-04-30T22:39:40.324Z,50.46
2023-04-30T22:42:10.452Z,50.28
2023-04-30T22:44:38.948Z,50.58
2023-04-30T22:47:07.155Z,50.44
2023-04-30T22:49:39.982Z,49.87
2023-04-30T22:52:08.383Z,50.15
2023-04-30T22:54:36.426Z,50.28
2023-04-30T22:57:04.722Z,50.88
2023-04-30T22:59:33.402Z,50.28
2023-04-30T23:02:01.483Z,51.16
2023-04-30T23:04:32.340Z,51.57
2023-04-30T23:07:02.332Z,50.89
2023-04-30T23:09:30.268Z,50.74
2023-04-30T23:11:58.477Z,51.22
2023-04-30T23:14:26.668Z,51.18
2023-04-30T23:16:56.553Z,51.41
2023-04-30T23:19:26.044Z,51.20
2023-04-30T23:21:54.057Z,51.10
2023-04-30T23:24:23.273Z,52.05
2023-04-30T23:26:51.414Z,51.92
2023-04-30T23:29:19.799Z,51.60
2023-04-30T23:31:48.234Z,51.67
2023-04-30T23:34:16.143Z,51.82
2023-04-30T23:36:44.113Z,51.67
2023-04-30T23:39:11.937Z,52.13
2023-04-30T23:41:41.292Z,51.61
2023-04-30T23:44:09.486Z,52.28
2023-04-30T23:46:37.450Z,52.32
2023-04-30T23:49:05.486Z,52.10
2023-04-30T23:51:34.034Z,52.33
2023-04-30T23:54:01.931Z,52.19
2023-04-30T23:56:29.806Z,51.74
2023-04-30T23:58:59.217Z,51.45
